CRB weather

Collarenebri Airport
New South Wales, Australia

Public forecast

Using degrees Celsius for public forecast. Weather courtesy of forecast.io.

METAR (pilot weather report)

Closest report is Moree Airport, 66.0 nm (122.2 km) E. Retrieved 2019/04/19 16:00 UTC (1 minute ago):

YMOR 191600Z AUTO 08011KT 9999 // NCD 20/13 Q1022

TAF (pilot weather forecast)

Closest forecast is Tamworth Airport, 150.3 nm (278.3 km) SE. Retrieved 2019/04/19 12:36 UTC (3 hours ago):

TAF TAF YSTW 191042Z 1912/2006 12010KT CAVOK FM191600 12010KT 9999 FEW010 FM200200 09012KT 9999 SCT050